createdAt,value
2018-10-19T00:02:21.269Z,12.80
2018-10-19T00:04:49.737Z,12.70
2018-10-19T00:07:18.559Z,12.80
2018-10-19T00:09:47.028Z,12.80
2018-10-19T00:12:15.524Z,12.80
2018-10-19T00:14:43.977Z,12.80
2018-10-19T00:17:12.537Z,12.80
2018-10-19T00:19:40.934Z,12.80
2018-10-19T00:22:09.346Z,12.80
2018-10-19T00:24:37.790Z,12.80
2018-10-19T00:27:06.243Z,12.80
2018-10-19T00:29:34.697Z,12.80
2018-10-19T00:32:03.179Z,12.80
2018-10-19T00:34:31.671Z,12.80
2018-10-19T00:37:00.051Z,12.80
2018-10-19T00:39:28.460Z,12.70
2018-10-19T00:41:56.899Z,12.70
2018-10-19T00:44:25.348Z,12.70
2018-10-19T00:46:53.858Z,12.60
2018-10-19T00:49:22.310Z,12.70
2018-10-19T00:51:50.725Z,12.70
2018-10-19T00:54:19.237Z,12.70
2018-10-19T00:56:47.769Z,12.70
2018-10-19T00:59:16.205Z,12.70
2018-10-19T01:01:44.650Z,12.70
2018-10-19T01:04:13.066Z,12.80
2018-10-19T01:06:41.493Z,12.80
2018-10-19T01:09:10.432Z,12.80
2018-10-19T01:11:38.864Z,12.90
2018-10-19T01:14:07.489Z,12.90
2018-10-19T01:16:35.901Z,12.90
2018-10-19T01:19:04.385Z,13.00
2018-10-19T01:21:32.811Z,13.00
2018-10-19T01:24:01.268Z,13.00
2018-10-19T01:26:29.834Z,13.10
2018-10-19T01:28:58.345Z,13.10
2018-10-19T01:31:26.751Z,13.20
2018-10-19T01:33:55.196Z,13.20
2018-10-19T01:36:27.972Z,13.20
2018-10-19T01:38:56.446Z,13.20
2018-10-19T01:41:25.473Z,13.20
2018-10-19T01:43:54.412Z,13.30
2018-10-19T01:46:22.888Z,13.30
2018-10-19T01:48:51.327Z,13.30
2018-10-19T01:51:19.745Z,13.30
2018-10-19T01:53:48.183Z,13.30
2018-10-19T01:56:16.634Z,13.30
2018-10-19T01:58:45.077Z,13.30
2018-10-19T02:01:13.504Z,13.40
2018-10-19T02:03:41.924Z,13.40
2018-10-19T02:06:10.371Z,13.40
2018-10-19T02:08:38.804Z,13.40
2018-10-19T02:11:07.352Z,13.40
2018-10-19T02:13:35.693Z,13.40
2018-10-19T02:16:04.206Z,13.40
2018-10-19T02:18:32.651Z,13.40
2018-10-19T02:21:01.091Z,13.50
2018-10-19T02:23:30.338Z,13.50
2018-10-19T02:25:58.768Z,13.50
2018-10-19T02:28:27.241Z,13.50
2018-10-19T02:30:55.706Z,13.50
2018-10-19T02:33:24.182Z,13.50
2018-10-19T02:35:52.630Z,13.50
2018-10-19T02:38:21.067Z,13.50
2018-10-19T02:40:49.509Z,13.50
2018-10-19T02:43:18.110Z,13.50
2018-10-19T02:45:46.581Z,13.50
2018-10-19T02:48:15.021Z,13.50
2018-10-19T02:50:43.465Z,13.60
2018-10-19T02:53:12.013Z,13.50
2018-10-19T02:55:40.403Z,13.50
2018-10-19T02:58:08.843Z,13.50
2018-10-19T03:00:37.370Z,13.50
2018-10-19T03:03:06.049Z,13.50
2018-10-19T03:05:34.508Z,13.60
2018-10-19T03:08:03.001Z,13.50
2018-10-19T03:10:32.832Z,13.50
2018-10-19T03:13:01.690Z,13.50
2018-10-19T03:15:31.709Z,13.40
2018-10-19T03:18:00.185Z,13.30
2018-10-19T03:20:28.652Z,13.30
2018-10-19T03:22:57.120Z,13.30
2018-10-19T03:25:25.560Z,13.20
2018-10-19T03:27:53.983Z,13.20
2018-10-19T03:30:22.476Z,13.20
2018-10-19T03:32:50.946Z,13.20
2018-10-19T03:35:19.411Z,13.20
2018-10-19T03:37:47.837Z,13.20
2018-10-19T03:40:16.316Z,13.10
2018-10-19T03:42:44.760Z,13.10
2018-10-19T03:45:13.271Z,13.00
2018-10-19T03:47:41.741Z,13.00
2018-10-19T03:50:10.202Z,12.90
2018-10-19T03:52:38.657Z,12.90
2018-10-19T03:55:07.953Z,12.90
2018-10-19T03:57:36.415Z,12.80
2018-10-19T04:00:05.226Z,12.80
2018-10-19T04:02:34.146Z,12.70
2018-10-19T04:05:02.616Z,12.70
2018-10-19T04:07:31.113Z,12.70
2018-10-19T04:09:59.533Z,12.70
2018-10-19T04:12:28.006Z,12.60
2018-10-19T04:14:56.473Z,12.60
2018-10-19T04:17:24.896Z,12.70
2018-10-19T04:19:53.352Z,12.60
2018-10-19T04:22:21.776Z,12.60
2018-10-19T04:24:50.205Z,12.60
2018-10-19T04:27:18.739Z,12.60
2018-10-19T04:29:47.121Z,12.60
2018-10-19T04:32:15.629Z,12.50
2018-10-19T04:34:44.147Z,12.60
2018-10-19T04:37:12.618Z,12.60
2018-10-19T04:39:41.095Z,12.60
2018-10-19T04:42:09.632Z,12.50
2018-10-19T04:44:38.073Z,12.60
2018-10-19T04:47:06.663Z,12.60
2018-10-19T04:49:35.613Z,12.60
2018-10-19T04:52:04.175Z,12.60
2018-10-19T04:54:32.692Z,12.70
2018-10-19T04:57:01.214Z,12.70
2018-10-19T04:59:29.675Z,12.70
2018-10-19T05:01:58.130Z,12.80
2018-10-19T05:04:26.635Z,12.70
2018-10-19T05:06:55.092Z,12.80
2018-10-19T05:09:23.571Z,12.80
2018-10-19T05:11:52.001Z,12.80
2018-10-19T05:14:21.026Z,12.80
2018-10-19T05:16:49.461Z,12.80
2018-10-19T05:19:18.103Z,12.80
2018-10-19T05:21:46.549Z,12.80
2018-10-19T05:24:15.015Z,12.80
2018-10-19T05:26:43.456Z,12.80
2018-10-19T05:29:11.943Z,12.80
2018-10-19T05:31:40.440Z,12.90
2018-10-19T05:34:08.911Z,12.90
2018-10-19T05:36:44.018Z,12.90
2018-10-19T05:39:12.521Z,12.90
2018-10-19T05:41:40.994Z,12.90
2018-10-19T05:44:09.469Z,12.90
2018-10-19T05:46:37.920Z,13.00
2018-10-19T05:49:06.434Z,13.00
2018-10-19T05:51:34.894Z,12.90
2018-10-19T05:54:04.078Z,13.00
2018-10-19T05:56:33.658Z,13.00
2018-10-19T05:59:02.169Z,13.00
2018-10-19T06:01:30.573Z,13.00
2018-10-19T06:03:59.021Z,13.10
2018-10-19T06:06:27.462Z,13.10
2018-10-19T06:08:56.245Z,13.10
2018-10-19T06:11:24.690Z,13.20
2018-10-19T06:13:53.214Z,13.20
2018-10-19T06:16:21.637Z,13.20
2018-10-19T06:18:51.321Z,13.30
2018-10-19T06:21:19.766Z,13.30
2018-10-19T06:23:48.212Z,13.30
2018-10-19T06:26:16.711Z,13.30
2018-10-19T06:28:45.186Z,13.40
2018-10-19T06:31:13.628Z,13.40
2018-10-19T06:33:42.145Z,13.40
2018-10-19T06:36:13.758Z,13.40
2018-10-19T06:38:42.242Z,13.50
2018-10-19T06:41:10.824Z,13.50
2018-10-19T06:43:39.279Z,13.40
2018-10-19T06:46:07.710Z,13.50
2018-10-19T06:48:36.249Z,13.50
2018-10-19T06:51:04.681Z,13.60
2018-10-19T06:53:33.190Z,13.60
2018-10-19T06:56:01.965Z,13.60
2018-10-19T06:58:30.412Z,13.70
2018-10-19T07:00:58.941Z,13.70
2018-10-19T07:03:27.538Z,13.80
2018-10-19T07:05:56.037Z,13.80
2018-10-19T07:08:24.469Z,13.90
2018-10-19T07:10:52.978Z,13.90
2018-10-19T07:13:21.477Z,13.90
2018-10-19T07:15:50.008Z,14.00
2018-10-19T07:18:18.445Z,14.00
2018-10-19T07:20:46.877Z,14.10
2018-10-19T07:23:15.475Z,14.20
2018-10-19T07:25:43.841Z,14.20
2018-10-19T07:28:12.386Z,14.30
2018-10-19T07:30:40.855Z,14.50
2018-10-19T07:33:09.394Z,14.60
2018-10-19T07:35:37.866Z,14.70
2018-10-19T07:38:06.988Z,14.80
2018-10-19T07:40:35.407Z,15.00
2018-10-19T07:43:04.080Z,15.00
2018-10-19T07:45:32.526Z,15.10
2018-10-19T07:48:01.187Z,15.20
2018-10-19T07:50:29.956Z,15.30
2018-10-19T07:52:58.458Z,15.40
2018-10-19T07:55:26.916Z,15.50
2018-10-19T07:57:55.421Z,15.70
2018-10-19T08:00:23.918Z,15.90
2018-10-19T08:02:52.413Z,16.00
2018-10-19T08:05:20.895Z,16.30
2018-10-19T08:07:49.356Z,16.40
2018-10-19T08:10:17.835Z,16.50
2018-10-19T08:12:46.276Z,16.70
2018-10-19T08:15:14.707Z,16.90
2018-10-19T08:17:43.182Z,17.00
2018-10-19T08:20:11.857Z,17.20
2018-10-19T08:22:40.502Z,17.30
2018-10-19T08:25:08.985Z,17.30
2018-10-19T08:27:37.472Z,17.30
2018-10-19T08:30:06.024Z,17.30
2018-10-19T08:32:34.435Z,17.40
2018-10-19T08:35:02.959Z,17.50
2018-10-19T08:37:31.513Z,17.60
2018-10-19T08:39:59.942Z,17.60
2018-10-19T08:42:28.378Z,17.80
2018-10-19T08:44:56.890Z,17.90
2018-10-19T08:47:25.326Z,18.00
2018-10-19T08:49:53.776Z,18.20
2018-10-19T08:52:22.247Z,18.40
2018-10-19T08:54:50.793Z,18.40
2018-10-19T08:57:19.269Z,18.50
2018-10-19T08:59:47.785Z,18.50
2018-10-19T09:02:16.622Z,18.60
2018-10-19T09:04:45.065Z,18.80
2018-10-19T09:07:13.577Z,19.10
2018-10-19T09:09:42.071Z,19.20
2018-10-19T09:12:10.602Z,19.40
2018-10-19T09:14:48.136Z,19.50
2018-10-19T09:17:16.639Z,19.50
2018-10-19T09:19:45.520Z,19.50
2018-10-19T09:22:14.624Z,19.60
2018-10-19T09:24:43.356Z,19.70
2018-10-19T09:27:11.859Z,19.60
2018-10-19T09:29:40.418Z,19.70
2018-10-19T09:32:08.821Z,19.80
2018-10-19T09:34:37.514Z,19.90
2018-10-19T09:37:07.405Z,19.90
2018-10-19T09:39:35.873Z,20.10
2018-10-19T09:42:04.585Z,20.20
2018-10-19T09:44:33.146Z,20.50
2018-10-19T09:47:01.654Z,20.90
2018-10-19T09:49:30.139Z,20.90
2018-10-19T09:51:59.266Z,20.90
2018-10-19T09:54:27.976Z,20.90
2018-10-19T09:56:56.513Z,21.30
2018-10-19T09:59:25.793Z,21.50
2018-10-19T10:01:54.283Z,21.80
2018-10-19T10:04:22.765Z,22.40
2018-10-19T10:06:51.210Z,23.10
2018-10-19T10:09:19.722Z,23.70
2018-10-19T10:11:48.177Z,24.20
2018-10-19T10:14:16.813Z,24.50
2018-10-19T10:16:45.330Z,24.50
2018-10-19T10:19:13.842Z,24.60
2018-10-19T10:21:42.219Z,24.60
2018-10-19T10:24:10.700Z,24.80
2018-10-19T10:26:39.173Z,24.50
2018-10-19T10:29:07.662Z,24.20
2018-10-19T10:31:36.431Z,23.90
2018-10-19T10:34:05.488Z,23.70
2018-10-19T10:36:34.107Z,23.60
2018-10-19T10:39:02.955Z,23.30
2018-10-19T10:41:31.377Z,23.20
2018-10-19T10:44:00.247Z,23.00
2018-10-19T10:46:28.729Z,22.90
2018-10-19T10:48:57.276Z,22.90
2018-10-19T10:51:25.725Z,22.90
2018-10-19T10:53:54.216Z,22.40
2018-10-19T10:56:22.729Z,22.20
2018-10-19T10:58:51.185Z,22.10
2018-10-19T11:01:19.664Z,21.90
2018-10-19T11:03:48.438Z,21.60
2018-10-19T11:06:16.920Z,21.50
2018-10-19T11:08:45.361Z,21.20
2018-10-19T11:11:15.088Z,21.10
2018-10-19T11:13:44.134Z,21.00
2018-10-19T11:16:13.396Z,21.00
2018-10-19T11:18:41.984Z,21.00
2018-10-19T11:21:10.521Z,20.90
2018-10-19T11:23:38.921Z,20.90
2018-10-19T11:26:07.365Z,20.80
2018-10-19T11:28:35.863Z,20.80
2018-10-19T11:31:04.891Z,20.80
2018-10-19T11:33:34.087Z,20.70
2018-10-19T11:36:02.547Z,20.70
2018-10-19T11:38:31.047Z,20.60
2018-10-19T11:40:59.442Z,20.70
2018-10-19T11:43:27.942Z,20.80
2018-10-19T11:45:56.484Z,20.90
2018-10-19T11:48:24.918Z,21.00
2018-10-19T11:50:53.413Z,21.10
2018-10-19T11:53:21.875Z,21.30
2018-10-19T11:55:50.316Z,21.40
2018-10-19T11:58:18.828Z,21.50
2018-10-19T12:00:47.279Z,21.60
2018-10-19T12:03:15.702Z,21.70
2018-10-19T12:05:47.148Z,21.60
2018-10-19T12:08:15.696Z,21.60
2018-10-19T12:10:44.279Z,21.40
2018-10-19T12:13:12.670Z,21.30
2018-10-19T12:15:41.032Z,20.90
2018-10-19T12:18:09.521Z,20.50
2018-10-19T12:20:37.999Z,20.50
2018-10-19T12:23:07.330Z,20.40
2018-10-19T12:25:35.814Z,20.30
2018-10-19T12:28:04.597Z,20.40
2018-10-19T12:30:33.108Z,20.60
2018-10-19T12:33:01.551Z,20.70
2018-10-19T12:35:30.096Z,20.90
2018-10-19T12:37:58.528Z,21.00
2018-10-19T12:40:26.932Z,21.00
2018-10-19T12:42:55.441Z,20.90
2018-10-19T12:46:36.288Z,20.90
2018-10-19T12:49:05.086Z,20.80
2018-10-19T12:51:33.748Z,20.80
2018-10-19T12:54:02.244Z,20.70
2018-10-19T12:56:30.738Z,20.70
2018-10-19T12:58:59.182Z,20.70
2018-10-19T13:01:28.645Z,20.80
2018-10-19T13:03:57.542Z,20.70
2018-10-19T13:06:26.019Z,20.50
2018-10-19T13:08:54.668Z,20.40
2018-10-19T13:11:23.439Z,20.30
2018-10-19T13:13:51.998Z,20.10
2018-10-19T13:16:20.498Z,20.10
2018-10-19T13:18:48.938Z,20.10
2018-10-19T13:21:17.427Z,20.20
2018-10-19T13:23:45.888Z,20.00
2018-10-19T13:26:14.380Z,19.90
2018-10-19T13:28:42.899Z,20.00
2018-10-19T13:31:11.344Z,19.90
2018-10-19T13:33:39.797Z,19.70
2018-10-19T13:36:08.253Z,19.60
2018-10-19T13:38:36.721Z,19.50
2018-10-19T13:41:05.235Z,19.50
2018-10-19T13:43:33.827Z,19.40
2018-10-19T13:46:02.262Z,19.30
2018-10-19T13:48:30.756Z,19.30
2018-10-19T13:50:59.324Z,19.30
2018-10-19T13:53:27.818Z,19.30
2018-10-19T13:55:56.284Z,19.20
2018-10-19T13:58:24.777Z,19.10
2018-10-19T14:00:53.209Z,19.10
2018-10-19T14:03:21.668Z,19.00
2018-10-19T14:05:50.164Z,19.00
2018-10-19T14:08:18.702Z,18.90
2018-10-19T14:10:47.128Z,18.80
2018-10-19T14:13:15.636Z,18.80
2018-10-19T14:15:44.143Z,18.80
2018-10-19T14:18:12.838Z,18.80
2018-10-19T14:20:41.386Z,18.80
2018-10-19T14:23:09.946Z,18.80
2018-10-19T14:25:38.363Z,18.90
2018-10-19T14:28:06.962Z,19.00
2018-10-19T14:30:35.467Z,19.20
2018-10-19T14:33:04.098Z,19.40
2018-10-19T14:35:32.565Z,19.50
2018-10-19T14:38:01.379Z,19.70
2018-10-19T14:40:29.855Z,19.70
2018-10-19T14:42:58.359Z,19.60
2018-10-19T14:45:27.513Z,19.50
2018-10-19T14:47:56.060Z,19.50
2018-10-19T14:50:24.766Z,19.30
2018-10-19T14:52:53.327Z,19.20
2018-10-19T14:55:21.834Z,19.20
2018-10-19T14:57:50.366Z,19.20
2018-10-19T15:00:19.503Z,19.10
2018-10-19T15:02:48.775Z,19.10
2018-10-19T15:05:18.477Z,18.90
2018-10-19T15:07:47.065Z,18.80
2018-10-19T15:10:17.783Z,18.70
2018-10-19T15:12:46.090Z,18.50
2018-10-19T15:15:18.346Z,18.30
2018-10-19T15:17:47.033Z,18.20
2018-10-19T15:20:16.153Z,18.00
2018-10-19T15:22:44.910Z,17.80
2018-10-19T15:25:13.505Z,17.80
2018-10-19T15:27:43.499Z,17.70
2018-10-19T15:30:13.445Z,17.60
2018-10-19T15:32:42.076Z,17.50
2018-10-19T15:35:11.024Z,17.40
2018-10-19T15:37:39.853Z,17.30
2018-10-19T15:40:10.446Z,17.20
2018-10-19T15:42:39.994Z,17.10
2018-10-19T15:45:10.737Z,17.00
2018-10-19T15:47:39.418Z,17.00
2018-10-19T15:50:08.457Z,17.00
2018-10-19T15:52:36.952Z,17.00
2018-10-19T15:55:06.349Z,17.00
2018-10-19T15:57:34.829Z,17.00
2018-10-19T16:00:03.508Z,16.90
2018-10-19T16:02:32.696Z,16.90
2018-10-19T16:05:01.155Z,16.80
2018-10-19T16:07:29.624Z,16.80
2018-10-19T16:09:58.109Z,16.70
2018-10-19T16:12:26.580Z,16.70
2018-10-19T16:14:55.091Z,16.70
2018-10-19T16:17:23.601Z,16.60
2018-10-19T16:19:52.099Z,16.60
2018-10-19T16:22:20.574Z,16.50
2018-10-19T16:24:49.070Z,16.50
2018-10-19T16:27:17.807Z,16.50
2018-10-19T16:29:46.130Z,16.50
2018-10-19T16:32:14.658Z,16.50
2018-10-19T16:34:43.191Z,16.50
2018-10-19T16:37:11.648Z,16.40
2018-10-19T16:39:40.157Z,16.40
2018-10-19T16:42:08.768Z,16.30
2018-10-19T16:44:37.166Z,16.30
2018-10-19T16:47:06.543Z,16.30
2018-10-19T16:49:35.050Z,16.40
2018-10-19T16:52:04.519Z,16.30
2018-10-19T16:54:32.948Z,16.20
2018-10-19T16:57:01.464Z,16.10
2018-10-19T16:59:29.904Z,16.00
2018-10-19T17:01:58.378Z,16.00
2018-10-19T17:04:26.854Z,15.90
2018-10-19T17:06:55.798Z,15.90
2018-10-19T17:09:24.301Z,15.90
2018-10-19T17:11:52.799Z,15.90
2018-10-19T17:14:21.325Z,15.80
2018-10-19T17:16:49.804Z,15.80
2018-10-19T17:19:18.263Z,15.80
2018-10-19T17:21:46.822Z,15.80
2018-10-19T17:24:15.444Z,15.70
2018-10-19T17:26:43.908Z,15.70
2018-10-19T17:29:12.567Z,15.60
2018-10-19T17:31:40.997Z,15.60
2018-10-19T17:34:09.514Z,15.50
2018-10-19T17:36:38.008Z,15.50
2018-10-19T17:39:08.816Z,15.50
2018-10-19T17:41:37.401Z,15.50
2018-10-19T17:44:07.205Z,15.40
2018-10-19T17:46:42.305Z,15.40
2018-10-19T17:49:10.847Z,15.40
2018-10-19T17:51:39.314Z,15.30
2018-10-19T17:54:07.936Z,15.20
2018-10-19T17:56:36.470Z,15.20
2018-10-19T17:59:05.163Z,15.10
2018-10-19T18:01:33.772Z,15.10
2018-10-19T18:04:02.617Z,15.00
2018-10-19T18:06:31.190Z,14.90
2018-10-19T18:08:59.751Z,14.90
2018-10-19T18:11:28.212Z,14.80
2018-10-19T18:13:56.796Z,14.80
2018-10-19T18:16:25.525Z,14.70
2018-10-19T18:18:54.003Z,14.70
2018-10-19T18:21:24.763Z,14.70
2018-10-19T18:23:53.227Z,14.70
2018-10-19T18:26:21.729Z,14.60
2018-10-19T18:28:50.208Z,14.60
2018-10-19T18:31:19.309Z,14.60
2018-10-19T18:33:48.609Z,14.60
2018-10-19T18:36:17.116Z,14.60
2018-10-19T18:38:45.699Z,14.60
2018-10-19T18:41:14.261Z,14.60
2018-10-19T18:43:43.518Z,14.60
2018-10-19T18:46:12.007Z,14.60
2018-10-19T18:48:41.610Z,14.60
2018-10-19T18:51:10.102Z,14.60
2018-10-19T18:53:38.610Z,14.60
2018-10-19T18:56:07.127Z,14.60
2018-10-19T18:58:35.708Z,14.60
2018-10-19T19:01:04.321Z,14.60
2018-10-19T19:03:32.828Z,14.70
2018-10-19T19:06:01.337Z,14.70
2018-10-19T19:08:34.209Z,14.70
2018-10-19T19:11:02.866Z,14.70
2018-10-19T19:13:32.880Z,14.70
2018-10-19T19:16:01.780Z,14.70
2018-10-19T19:18:30.323Z,14.60
2018-10-19T19:20:59.387Z,14.60
2018-10-19T19:23:27.902Z,14.60
2018-10-19T19:26:01.825Z,14.50
2018-10-19T19:28:31.035Z,14.40
2018-10-19T19:30:59.533Z,14.40
2018-10-19T19:33:33.354Z,14.30
2018-10-19T19:36:01.884Z,14.20
2018-10-19T19:38:30.493Z,14.10
2018-10-19T19:41:04.368Z,14.10
2018-10-19T19:43:32.843Z,13.90
2018-10-19T19:46:01.431Z,13.80
2018-10-19T19:48:35.961Z,13.70
2018-10-19T19:51:04.664Z,13.70
2018-10-19T19:53:33.246Z,13.60
2018-10-19T19:56:01.926Z,13.50
2018-10-19T19:58:31.176Z,13.40
2018-10-19T20:01:00.861Z,13.30
2018-10-19T20:03:29.836Z,13.20
2018-10-19T20:05:58.483Z,13.10
2018-10-19T20:08:27.110Z,13.00
2018-10-19T20:10:55.822Z,13.00
2018-10-19T20:13:24.614Z,12.90
2018-10-19T20:15:53.156Z,12.80
2018-10-19T20:18:21.877Z,12.80
2018-10-19T20:20:50.905Z,12.70
2018-10-19T20:23:19.941Z,12.70
2018-10-19T20:25:48.648Z,12.70
2018-10-19T20:28:17.823Z,12.70
2018-10-19T20:30:47.312Z,12.70
2018-10-19T20:33:20.493Z,12.60
2018-10-19T20:35:49.049Z,12.60
2018-10-19T20:38:17.763Z,12.50
2018-10-19T20:40:46.599Z,12.50
2018-10-19T20:43:15.096Z,12.40
2018-10-19T20:45:43.647Z,12.40
2018-10-19T20:48:13.626Z,12.40
2018-10-19T20:50:42.938Z,12.40
2018-10-19T20:53:11.734Z,12.30
2018-10-19T20:55:41.166Z,12.30
2018-10-19T20:58:10.046Z,12.20
2018-10-19T21:00:39.197Z,12.10
2018-10-19T21:03:09.641Z,12.10
2018-10-19T21:05:38.147Z,12.00
2018-10-19T21:08:06.947Z,12.00
2018-10-19T21:10:35.530Z,11.90
2018-10-19T21:13:05.057Z,11.90
2018-10-19T21:15:34.821Z,11.80
2018-10-19T21:18:03.453Z,11.80
2018-10-19T21:20:31.929Z,11.80
2018-10-19T21:23:00.421Z,11.70
2018-10-19T21:25:28.841Z,11.70
2018-10-19T21:27:57.357Z,11.70
2018-10-19T21:30:26.041Z,11.60
2018-10-19T21:32:54.540Z,11.60
2018-10-19T21:35:23.650Z,11.60
2018-10-19T21:37:52.226Z,11.50
2018-10-19T21:40:20.760Z,11.50
2018-10-19T21:42:49.350Z,11.40
2018-10-19T21:45:17.848Z,11.40
2018-10-19T21:47:46.350Z,11.30
2018-10-19T21:50:14.952Z,11.20
2018-10-19T21:52:43.410Z,11.20
2018-10-19T21:55:12.348Z,11.10
2018-10-19T21:57:40.902Z,11.00
2018-10-19T22:00:10.443Z,11.00
2018-10-19T22:02:38.916Z,10.90
2018-10-19T22:05:07.849Z,10.90
2018-10-19T22:07:37.390Z,10.80
2018-10-19T22:10:06.562Z,10.80
2018-10-19T22:12:35.622Z,10.70
2018-10-19T22:15:04.332Z,10.70
2018-10-19T22:17:32.830Z,10.70
2018-10-19T22:20:01.442Z,10.60
2018-10-19T22:22:29.983Z,10.60
2018-10-19T22:24:58.476Z,10.50
2018-10-19T22:27:26.968Z,10.50
2018-10-19T22:29:55.419Z,10.50
2018-10-19T22:32:25.146Z,10.50
2018-10-19T22:34:53.613Z,10.60
2018-10-19T22:37:22.086Z,10.60
2018-10-19T22:39:50.862Z,10.60
2018-10-19T22:42:19.886Z,10.70
2018-10-19T22:44:48.370Z,10.70
2018-10-19T22:47:16.930Z,10.70
2018-10-19T22:49:45.365Z,10.70
2018-10-19T22:52:13.833Z,10.70
2018-10-19T22:54:42.352Z,10.60
2018-10-19T22:57:10.822Z,10.60
2018-10-19T22:59:39.289Z,10.60
2018-10-19T23:02:07.782Z,10.50
2018-10-19T23:04:36.317Z,10.40
2018-10-19T23:07:05.125Z,10.40
2018-10-19T23:09:33.548Z,10.30
2018-10-19T23:12:02.012Z,10.20
2018-10-19T23:14:30.545Z,10.20
2018-10-19T23:16:59.703Z,10.20
2018-10-19T23:19:28.164Z,10.10
2018-10-19T23:21:56.679Z,10.10
2018-10-19T23:24:25.119Z,10.10
2018-10-19T23:26:53.558Z,10.10
2018-10-19T23:29:22.041Z,10.10
2018-10-19T23:31:50.492Z,10.10
2018-10-19T23:34:18.984Z,10.00
2018-10-19T23:36:47.427Z,10.00
2018-10-19T23:39:16.639Z,10.00
2018-10-19T23:41:45.103Z,9.90
2018-10-19T23:44:13.507Z,9.90
2018-10-19T23:46:41.905Z,9.90
2018-10-19T23:49:11.091Z,9.80
2018-10-19T23:51:39.436Z,9.80
2018-10-19T23:54:07.870Z,9.80
2018-10-19T23:56:36.399Z,9.70
2018-10-19T23:59:05.258Z,9.70
